Bonita, Louisiana
Current Conditions -  °F | °C
As of 12:55 AM on Monday 24 Nov 2014 (Local Time) from KBQP Reporting Station
Clear Clear  
Wind Chill: 60°   Ceiling: Unl
Heat Index: 60°   Visibility: 10mi
Dew Point: 53°   Wind: 8mph
Humidity: 77%   Direction: 230°SW
Pressure: 29.63"   Gusts: NA
Location:  32.92°N, 91.68°W
Report Text: KBQP 240655Z AUTO 23007KT 10SM CLR 16/12 A2963 RMK AO2 T01560116
Loading
Personal Weather Stations






























Interactive Weather Map New forecast layout! Learn more

10-Day Weather Forecast

Advertisements
Track Severe Weather on mobile